METAR Data
IDs: Format: Raw Decoded Include TAF

Data at: 1351 UTC 10 Aug 2022

METAR for:K9V9 (Chamberlain Muni, SD, US)
Text:K9V9 101335Z AUTO 04004KT 10SM CLR 21/21 A3015 RMK AO2 T02070206
Temperature: 20.7°C ( 69°F)
Dewpoint: 20.6°C ( 69°F) [RH = 99%]
Pressure (altimeter):30.15 inches Hg (1021.1 mb)
Winds:from the NE (40 degrees) at 5 MPH (4 knots; 2.1 m/s)
Visibility:10 or more sm (16+ km)
Ceiling:at least 12,000 feet AGL
Clouds:sky clear below 12,000 feet AGL
QC Flag:automated observation with no human augmentation
Text:K9V9 101315Z AUTO 02006KT 10SM CLR 20/20 A3014 RMK AO2 T02000200
Temperature: 20.0°C ( 68°F)
Dewpoint: 20.0°C ( 68°F) [RH = 100%]
Pressure (altimeter):30.14 inches Hg (1020.7 mb)
Winds:from the NNE (20 degrees) at 7 MPH (6 knots; 3.1 m/s)
Visibility:10 or more sm (16+ km)
Ceiling:at least 12,000 feet AGL
Clouds:sky clear below 12,000 feet AGL
QC Flag:automated observation with no human augmentation
Text:K9V9 101255Z AUTO 02006KT 10SM CLR 20/20 A3014 RMK AO2 T01960196
Temperature: 19.6°C ( 67°F)
Dewpoint: 19.6°C ( 67°F) [RH = 100%]
Pressure (altimeter):30.14 inches Hg (1020.7 mb)
Winds:from the NNE (20 degrees) at 7 MPH (6 knots; 3.1 m/s)
Visibility:10 or more sm (16+ km)
Ceiling:at least 12,000 feet AGL
Clouds:sky clear below 12,000 feet AGL
QC Flag:automated observation with no human augmentation
Text:K9V9 101235Z AUTO 01004KT 10SM CLR 19/19 A3013 RMK AO2 T01910191
Temperature: 19.1°C ( 66°F)
Dewpoint: 19.1°C ( 66°F) [RH = 100%]
Pressure (altimeter):30.13 inches Hg (1020.4 mb)
Winds:from the N (10 degrees) at 5 MPH (4 knots; 2.1 m/s)
Visibility:10 or more sm (16+ km)
Ceiling:at least 12,000 feet AGL
Clouds:sky clear below 12,000 feet AGL
QC Flag:automated observation with no human augmentation
Text:K9V9 101215Z AUTO 02003KT 10SM CLR 19/19 A3013 RMK AO2 T01850185
Temperature: 18.5°C ( 65°F)
Dewpoint: 18.5°C ( 65°F) [RH = 100%]
Pressure (altimeter):30.13 inches Hg (1020.4 mb)
Winds:from the NNE (20 degrees) at 3 MPH (3 knots; 1.5 m/s)
Visibility:10 or more sm (16+ km)
Ceiling:at least 12,000 feet AGL
Clouds:sky clear below 12,000 feet AGL
QC Flag:automated observation with no human augmentation
Text:K9V9 101155Z AUTO 01003KT 10SM CLR 18/18 A3012 RMK AO2 T01820182 10233 20182
Temperature: 18.2°C ( 65°F)
Dewpoint: 18.2°C ( 65°F) [RH = 100%]
Pressure (altimeter):30.12 inches Hg (1020.1 mb)
Winds:from the N (10 degrees) at 3 MPH (3 knots; 1.5 m/s)
Visibility:10 or more sm (16+ km)
Ceiling:at least 12,000 feet AGL
Clouds:sky clear below 12,000 feet AGL
QC Flag:automated observation with no human augmentation
Text:K9V9 101135Z AUTO 04003KT 10SM CLR 19/19 A3011 RMK AO2 T01850185
Temperature: 18.5°C ( 65°F)
Dewpoint: 18.5°C ( 65°F) [RH = 100%]
Pressure (altimeter):30.11 inches Hg (1019.7 mb)
Winds:from the NE (40 degrees) at 3 MPH (3 knots; 1.5 m/s)
Visibility:10 or more sm (16+ km)
Ceiling:at least 12,000 feet AGL
Clouds:sky clear below 12,000 feet AGL
QC Flag:automated observation with no human augmentation
Text:K9V9 101115Z AUTO 05004KT 10SM CLR 19/19 A3010 RMK AO2 T01860186
Temperature: 18.6°C ( 65°F)
Dewpoint: 18.6°C ( 65°F) [RH = 100%]
Pressure (altimeter):30.10 inches Hg (1019.4 mb)
Winds:from the NE (50 degrees) at 5 MPH (4 knots; 2.1 m/s)
Visibility:10 or more sm (16+ km)
Ceiling:at least 12,000 feet AGL
Clouds:sky clear below 12,000 feet AGL
QC Flag:automated observation with no human augmentation
Text:K9V9 101055Z AUTO 04004KT 10SM CLR 19/19 A3010 RMK AO2 T01850185
Temperature: 18.5°C ( 65°F)
Dewpoint: 18.5°C ( 65°F) [RH = 100%]
Pressure (altimeter):30.10 inches Hg (1019.4 mb)
Winds:from the NE (40 degrees) at 5 MPH (4 knots; 2.1 m/s)
Visibility:10 or more sm (16+ km)
Ceiling:at least 12,000 feet AGL
Clouds:sky clear below 12,000 feet AGL
QC Flag:automated observation with no human augmentation
Text:K9V9 101035Z AUTO 07004KT 10SM CLR 19/19 A3010 RMK AO2 T01900190
Temperature: 19.0°C ( 66°F)
Dewpoint: 19.0°C ( 66°F) [RH = 100%]
Pressure (altimeter):30.10 inches Hg (1019.4 mb)
Winds:from the ENE (70 degrees) at 5 MPH (4 knots; 2.1 m/s)
Visibility:10 or more sm (16+ km)
Ceiling:at least 12,000 feet AGL
Clouds:sky clear below 12,000 feet AGL
QC Flag:automated observation with no human augmentation
Text:K9V9 101015Z AUTO 09004KT 10SM CLR 19/19 A3009 RMK AO2 T01900190
Temperature: 19.0°C ( 66°F)
Dewpoint: 19.0°C ( 66°F) [RH = 100%]
Pressure (altimeter):30.09 inches Hg (1019.0 mb)
Winds:from the E (90 degrees) at 5 MPH (4 knots; 2.1 m/s)
Visibility:10 or more sm (16+ km)
Ceiling:at least 12,000 feet AGL
Clouds:sky clear below 12,000 feet AGL
QC Flag:automated observation with no human augmentation
Text:K9V9 100955Z AUTO 09004KT 10SM CLR 19/19 A3009 RMK AO2 T01900190
Temperature: 19.0°C ( 66°F)
Dewpoint: 19.0°C ( 66°F) [RH = 100%]
Pressure (altimeter):30.09 inches Hg (1019.0 mb)
Winds:from the E (90 degrees) at 5 MPH (4 knots; 2.1 m/s)
Visibility:10 or more sm (16+ km)
Ceiling:at least 12,000 feet AGL
Clouds:sky clear below 12,000 feet AGL
QC Flag:automated observation with no human augmentation
Text:K9V9 100935Z AUTO 09004KT 10SM CLR 19/19 A3009 RMK AO2 T01930193
Temperature: 19.3°C ( 67°F)
Dewpoint: 19.3°C ( 67°F) [RH = 100%]
Pressure (altimeter):30.09 inches Hg (1019.0 mb)
Winds:from the E (90 degrees) at 5 MPH (4 knots; 2.1 m/s)
Visibility:10 or more sm (16+ km)
Ceiling:at least 12,000 feet AGL
Clouds:sky clear below 12,000 feet AGL
QC Flag:automated observation with no human augmentation
Text:K9V9 100915Z AUTO 08005KT 10SM CLR 19/19 A3009 RMK AO2 T01920192
Temperature: 19.2°C ( 67°F)
Dewpoint: 19.2°C ( 67°F) [RH = 100%]
Pressure (altimeter):30.09 inches Hg (1019.0 mb)
Winds:from the E (80 degrees) at 6 MPH (5 knots; 2.6 m/s)
Visibility:10 or more sm (16+ km)
Ceiling:at least 12,000 feet AGL
Clouds:sky clear below 12,000 feet AGL
QC Flag:automated observation with no human augmentation
Text:K9V9 100855Z AUTO 09005KT 10SM CLR 20/20 A3008 RMK AO2 T01960196
Temperature: 19.6°C ( 67°F)
Dewpoint: 19.6°C ( 67°F) [RH = 100%]
Pressure (altimeter):30.08 inches Hg (1018.7 mb)
Winds:from the E (90 degrees) at 6 MPH (5 knots; 2.6 m/s)
Visibility:10 or more sm (16+ km)
Ceiling:at least 12,000 feet AGL
Clouds:sky clear below 12,000 feet AGL
QC Flag:automated observation with no human augmentation
Text:K9V9 100835Z AUTO 09005KT 10SM CLR 20/19 A3008 RMK AO2 T02000192
Temperature: 20.0°C ( 68°F)
Dewpoint: 19.2°C ( 67°F) [RH = 95%]
Pressure (altimeter):30.08 inches Hg (1018.7 mb)
Winds:from the E (90 degrees) at 6 MPH (5 knots; 2.6 m/s)
Visibility:10 or more sm (16+ km)
Ceiling:at least 12,000 feet AGL
Clouds:sky clear below 12,000 feet AGL
QC Flag:automated observation with no human augmentation
Text:K9V9 100815Z AUTO 10004KT 10SM CLR 20/19 A3008 RMK AO2 T02020188
Temperature: 20.2°C ( 68°F)
Dewpoint: 18.8°C ( 66°F) [RH = 92%]
Pressure (altimeter):30.08 inches Hg (1018.7 mb)
Winds:from the E (100 degrees) at 5 MPH (4 knots; 2.1 m/s)
Visibility:10 or more sm (16+ km)
Ceiling:at least 12,000 feet AGL
Clouds:sky clear below 12,000 feet AGL
QC Flag:automated observation with no human augmentation
Text:K9V9 100755Z AUTO 09006KT 10SM CLR 21/18 A3008 RMK AO2 T02100183
Temperature: 21.0°C ( 70°F)
Dewpoint: 18.3°C ( 65°F) [RH = 85%]
Pressure (altimeter):30.08 inches Hg (1018.7 mb)
Winds:from the E (90 degrees) at 7 MPH (6 knots; 3.1 m/s)
Visibility:10 or more sm (16+ km)
Ceiling:at least 12,000 feet AGL
Clouds:sky clear below 12,000 feet AGL
QC Flag:automated observation with no human augmentation
Text:K9V9 100735Z AUTO 08006KT 10SM CLR 21/18 A3008 RMK AO2 T02100182
Temperature: 21.0°C ( 70°F)
Dewpoint: 18.2°C ( 65°F) [RH = 84%]
Pressure (altimeter):30.08 inches Hg (1018.7 mb)
Winds:from the E (80 degrees) at 7 MPH (6 knots; 3.1 m/s)
Visibility:10 or more sm (16+ km)
Ceiling:at least 12,000 feet AGL
Clouds:sky clear below 12,000 feet AGL
QC Flag:automated observation with no human augmentation
Text:K9V9 100715Z AUTO 09005KT 10SM CLR 21/18 A3008 RMK AO2 T02140180
Temperature: 21.4°C ( 71°F)
Dewpoint: 18.0°C ( 64°F) [RH = 81%]
Pressure (altimeter):30.08 inches Hg (1018.7 mb)
Winds:from the E (90 degrees) at 6 MPH (5 knots; 2.6 m/s)
Visibility:10 or more sm (16+ km)
Ceiling:at least 12,000 feet AGL
Clouds:sky clear below 12,000 feet AGL
QC Flag:automated observation with no human augmentation
Text:K9V9 100655Z AUTO 10005KT 10SM CLR 22/18 A3008 RMK AO2 T02210180
Temperature: 22.1°C ( 72°F)
Dewpoint: 18.0°C ( 64°F) [RH = 78%]
Pressure (altimeter):30.08 inches Hg (1018.7 mb)
Winds:from the E (100 degrees) at 6 MPH (5 knots; 2.6 m/s)
Visibility:10 or more sm (16+ km)
Ceiling:at least 12,000 feet AGL
Clouds:sky clear below 12,000 feet AGL
QC Flag:automated observation with no human augmentation
Text:K9V9 100635Z AUTO 08006KT 10SM CLR 23/18 A3007 RMK AO2 T02250180
Temperature: 22.5°C ( 72°F)
Dewpoint: 18.0°C ( 64°F) [RH = 76%]
Pressure (altimeter):30.07 inches Hg (1018.4 mb)
Winds:from the E (80 degrees) at 7 MPH (6 knots; 3.1 m/s)
Visibility:10 or more sm (16+ km)
Ceiling:at least 12,000 feet AGL
Clouds:sky clear below 12,000 feet AGL
QC Flag:automated observation with no human augmentation
Text:K9V9 100615Z AUTO 08006KT 10SM CLR 23/18 A3007 RMK AO2 T02300182
Temperature: 23.0°C ( 73°F)
Dewpoint: 18.2°C ( 65°F) [RH = 74%]
Pressure (altimeter):30.07 inches Hg (1018.4 mb)
Winds:from the E (80 degrees) at 7 MPH (6 knots; 3.1 m/s)
Visibility:10 or more sm (16+ km)
Ceiling:at least 12,000 feet AGL
Clouds:sky clear below 12,000 feet AGL
QC Flag:automated observation with no human augmentation
Text:K9V9 100555Z AUTO 11006KT 10SM CLR 23/18 A3007 RMK AO2 T02330182 10333 20232
Temperature: 23.3°C ( 74°F)
Dewpoint: 18.2°C ( 65°F) [RH = 73%]
Pressure (altimeter):30.07 inches Hg (1018.4 mb)
Winds:from the ESE (110 degrees) at 7 MPH (6 knots; 3.1 m/s)
Visibility:10 or more sm (16+ km)
Ceiling:at least 12,000 feet AGL
Clouds:sky clear below 12,000 feet AGL
QC Flag:automated observation with no human augmentation
Text:K9V9 100535Z AUTO 11008KT 10SM CLR 24/18 A3006 RMK AO2 T02360180
Temperature: 23.6°C ( 74°F)
Dewpoint: 18.0°C ( 64°F) [RH = 71%]
Pressure (altimeter):30.06 inches Hg (1018.0 mb)
Winds:from the ESE (110 degrees) at 9 MPH (8 knots; 4.1 m/s)
Visibility:10 or more sm (16+ km)
Ceiling:at least 12,000 feet AGL
Clouds:sky clear below 12,000 feet AGL
QC Flag:automated observation with no human augmentation
Text:K9V9 100515Z AUTO 09004KT 10SM CLR 23/18 A3007 RMK AO2 T02330177
Temperature: 23.3°C ( 74°F)
Dewpoint: 17.7°C ( 64°F) [RH = 71%]
Pressure (altimeter):30.07 inches Hg (1018.4 mb)
Winds:from the E (90 degrees) at 5 MPH (4 knots; 2.1 m/s)
Visibility:10 or more sm (16+ km)
Ceiling:at least 12,000 feet AGL
Clouds:sky clear below 12,000 feet AGL
QC Flag:automated observation with no human augmentation
Text:K9V9 100455Z AUTO 10007KT 10SM CLR 24/18 A3006 RMK AO2 T02430179
Temperature: 24.3°C ( 76°F)
Dewpoint: 17.9°C ( 64°F) [RH = 68%]
Pressure (altimeter):30.06 inches Hg (1018.0 mb)
Winds:from the E (100 degrees) at 8 MPH (7 knots; 3.6 m/s)
Visibility:10 or more sm (16+ km)
Ceiling:at least 12,000 feet AGL
Clouds:sky clear below 12,000 feet AGL
QC Flag:automated observation with no human augmentation
Text:K9V9 100435Z AUTO 08006KT 10SM CLR 24/18 A3006 RMK AO2 T02430180
Temperature: 24.3°C ( 76°F)
Dewpoint: 18.0°C ( 64°F) [RH = 68%]
Pressure (altimeter):30.06 inches Hg (1018.0 mb)
Winds:from the E (80 degrees) at 7 MPH (6 knots; 3.1 m/s)
Visibility:10 or more sm (16+ km)
Ceiling:at least 12,000 feet AGL
Clouds:sky clear below 12,000 feet AGL
QC Flag:automated observation with no human augmentation
Text:K9V9 100415Z AUTO 09008KT 10SM CLR 26/18 A3006 RMK AO2 T02550176
Temperature: 25.5°C ( 78°F)
Dewpoint: 17.6°C ( 64°F) [RH = 62%]
Pressure (altimeter):30.06 inches Hg (1018.0 mb)
Winds:from the E (90 degrees) at 9 MPH (8 knots; 4.1 m/s)
Visibility:10 or more sm (16+ km)
Ceiling:at least 12,000 feet AGL
Clouds:sky clear below 12,000 feet AGL
QC Flag:automated observation with no human augmentation
Text:K9V9 100355Z AUTO 09007KT 10SM CLR 26/18 A3005 RMK AO2 T02590176
Temperature: 25.9°C ( 79°F)
Dewpoint: 17.6°C ( 64°F) [RH = 60%]
Pressure (altimeter):30.05 inches Hg (1017.7 mb)
Winds:from the E (90 degrees) at 8 MPH (7 knots; 3.6 m/s)
Visibility:10 or more sm (16+ km)
Ceiling:at least 12,000 feet AGL
Clouds:sky clear below 12,000 feet AGL
QC Flag:automated observation with no human augmentation
Text:K9V9 100335Z AUTO 10008KT 10SM CLR 26/18 A3005 RMK AO2 T02640177
Temperature: 26.4°C ( 80°F)
Dewpoint: 17.7°C ( 64°F) [RH = 59%]
Pressure (altimeter):30.05 inches Hg (1017.7 mb)
Winds:from the E (100 degrees) at 9 MPH (8 knots; 4.1 m/s)
Visibility:10 or more sm (16+ km)
Ceiling:at least 12,000 feet AGL
Clouds:sky clear below 12,000 feet AGL
QC Flag:automated observation with no human augmentation
Text:K9V9 100315Z AUTO 08008KT 10SM CLR 26/18 A3005 RMK AO2 T02640180
Temperature: 26.4°C ( 80°F)
Dewpoint: 18.0°C ( 64°F) [RH = 60%]
Pressure (altimeter):30.05 inches Hg (1017.7 mb)
Winds:from the E (80 degrees) at 9 MPH (8 knots; 4.1 m/s)
Visibility:10 or more sm (16+ km)
Ceiling:at least 12,000 feet AGL
Clouds:sky clear below 12,000 feet AGL
QC Flag:automated observation with no human augmentation
Text:K9V9 100255Z AUTO 09006KT 10SM CLR 27/18 A3004 RMK AO2 T02670178
Temperature: 26.7°C ( 80°F)
Dewpoint: 17.8°C ( 64°F) [RH = 58%]
Pressure (altimeter):30.04 inches Hg (1017.4 mb)
Winds:from the E (90 degrees) at 7 MPH (6 knots; 3.1 m/s)
Visibility:10 or more sm (16+ km)
Ceiling:at least 12,000 feet AGL
Clouds:sky clear below 12,000 feet AGL
QC Flag:automated observation with no human augmentation
Text:K9V9 100235Z AUTO 08008KT 10SM CLR 28/17 A3003 RMK AO2 T02770173
Temperature: 27.7°C ( 82°F)
Dewpoint: 17.3°C ( 63°F) [RH = 53%]
Pressure (altimeter):30.03 inches Hg (1017.0 mb)
Winds:from the E (80 degrees) at 9 MPH (8 knots; 4.1 m/s)
Visibility:10 or more sm (16+ km)
Ceiling:at least 12,000 feet AGL
Clouds:sky clear below 12,000 feet AGL
QC Flag:automated observation with no human augmentation
Text:K9V9 100215Z AUTO 07008KT 10SM CLR 29/17 A3002 RMK AO2 T02850171
Temperature: 28.5°C ( 83°F)
Dewpoint: 17.1°C ( 63°F) [RH = 50%]
Pressure (altimeter):30.02 inches Hg (1016.7 mb)
Winds:from the ENE (70 degrees) at 9 MPH (8 knots; 4.1 m/s)
Visibility:10 or more sm (16+ km)
Ceiling:at least 12,000 feet AGL
Clouds:sky clear below 12,000 feet AGL
QC Flag:automated observation with no human augmentation
Text:K9V9 100155Z AUTO 10007KT 10SM CLR 30/17 A3001 RMK AO2 T02960171
Temperature: 29.6°C ( 85°F)
Dewpoint: 17.1°C ( 63°F) [RH = 47%]
Pressure (altimeter):30.01 inches Hg (1016.3 mb)
Winds:from the E (100 degrees) at 8 MPH (7 knots; 3.6 m/s)
Visibility:10 or more sm (16+ km)
Ceiling:at least 12,000 feet AGL
Clouds:sky clear below 12,000 feet AGL
QC Flag:automated observation with no human augmentation
Text:K9V9 100135Z AUTO 10007KT 10SM CLR 31/18 A3000 RMK AO2 T03070176
Temperature: 30.7°C ( 87°F)
Dewpoint: 17.6°C ( 64°F) [RH = 46%]
Pressure (altimeter):30.00 inches Hg (1016.0 mb)
Winds:from the E (100 degrees) at 8 MPH (7 knots; 3.6 m/s)
Visibility:10 or more sm (16+ km)
Ceiling:at least 12,000 feet AGL
Clouds:sky clear below 12,000 feet AGL
QC Flag:automated observation with no human augmentation
Text:K9V9 100115Z AUTO 09007KT 10SM CLR 32/19 A2999 RMK AO2 T03150185
Temperature: 31.5°C ( 89°F)
Dewpoint: 18.5°C ( 65°F) [RH = 46%]
Pressure (altimeter):29.99 inches Hg (1015.7 mb)
Winds:from the E (90 degrees) at 8 MPH (7 knots; 3.6 m/s)
Visibility:10 or more sm (16+ km)
Ceiling:at least 12,000 feet AGL
Clouds:sky clear below 12,000 feet AGL
QC Flag:automated observation with no human augmentation
Text:K9V9 100055Z AUTO 09007KT 10SM CLR 33/19 A2998 RMK AO2 T03260185
Temperature: 32.6°C ( 91°F)
Dewpoint: 18.5°C ( 65°F) [RH = 43%]
Pressure (altimeter):29.98 inches Hg (1015.3 mb)
Winds:from the E (90 degrees) at 8 MPH (7 knots; 3.6 m/s)
Visibility:10 or more sm (16+ km)
Ceiling:at least 12,000 feet AGL
Clouds:sky clear below 12,000 feet AGL
QC Flag:automated observation with no human augmentation
Text:K9V9 100035Z AUTO 09007KT 10SM CLR A2998 RMK AO2
Pressure (altimeter):29.98 inches Hg (1015.3 mb)
Winds:from the E (90 degrees) at 8 MPH (7 knots; 3.6 m/s)
Visibility:10 or more sm (16+ km)
Ceiling:at least 12,000 feet AGL
Clouds:sky clear below 12,000 feet AGL
QC Flag:automated observation with no human augmentation
Text:K9V9 100015Z AUTO 08008KT 10SM CLR A2998 RMK AO2
Pressure (altimeter):29.98 inches Hg (1015.3 mb)
Winds:from the E (80 degrees) at 9 MPH (8 knots; 4.1 m/s)
Visibility:10 or more sm (16+ km)
Ceiling:at least 12,000 feet AGL
Clouds:sky clear below 12,000 feet AGL
QC Flag:automated observation with no human augmentation
Text:K9V9 092355Z AUTO 08008KT 10SM CLR A2998 RMK AO2
Pressure (altimeter):29.98 inches Hg (1015.3 mb)
Winds:from the E (80 degrees) at 9 MPH (8 knots; 4.1 m/s)
Visibility:10 or more sm (16+ km)
Ceiling:at least 12,000 feet AGL
Clouds:sky clear below 12,000 feet AGL
QC Flag:automated observation with no human augmentation
Text:K9V9 092335Z AUTO 05006KT 10SM CLR A2998 RMK AO2
Pressure (altimeter):29.98 inches Hg (1015.3 mb)
Winds:from the NE (50 degrees) at 7 MPH (6 knots; 3.1 m/s)
Visibility:10 or more sm (16+ km)
Ceiling:at least 12,000 feet AGL
Clouds:sky clear below 12,000 feet AGL
QC Flag:automated observation with no human augmentation
Text:K9V9 092315Z AUTO 04008KT 10SM CLR A2997 RMK AO2
Pressure (altimeter):29.97 inches Hg (1015.0 mb)
Winds:from the NE (40 degrees) at 9 MPH (8 knots; 4.1 m/s)
Visibility:10 or more sm (16+ km)
Ceiling:at least 12,000 feet AGL
Clouds:sky clear below 12,000 feet AGL
QC Flag:automated observation with no human augmentation
Text:K9V9 092255Z AUTO 07006KT 10SM CLR A2997 RMK AO2
Pressure (altimeter):29.97 inches Hg (1015.0 mb)
Winds:from the ENE (70 degrees) at 7 MPH (6 knots; 3.1 m/s)
Visibility:10 or more sm (16+ km)
Ceiling:at least 12,000 feet AGL
Clouds:sky clear below 12,000 feet AGL
QC Flag:automated observation with no human augmentation
Text:K9V9 092235Z AUTO 07005KT 10SM CLR A2997 RMK AO2
Pressure (altimeter):29.97 inches Hg (1015.0 mb)
Winds:from the ENE (70 degrees) at 6 MPH (5 knots; 2.6 m/s)
Visibility:10 or more sm (16+ km)
Ceiling:at least 12,000 feet AGL
Clouds:sky clear below 12,000 feet AGL
QC Flag:automated observation with no human augmentation
Text:K9V9 092215Z AUTO 06008KT 10SM CLR A2997 RMK AO2
Pressure (altimeter):29.97 inches Hg (1015.0 mb)
Winds:from the ENE (60 degrees) at 9 MPH (8 knots; 4.1 m/s)
Visibility:10 or more sm (16+ km)
Ceiling:at least 12,000 feet AGL
Clouds:sky clear below 12,000 feet AGL
QC Flag:automated observation with no human augmentation
Text:K9V9 092155Z AUTO 08005KT 10SM CLR A2997 RMK AO2
Pressure (altimeter):29.97 inches Hg (1015.0 mb)
Winds:from the E (80 degrees) at 6 MPH (5 knots; 2.6 m/s)
Visibility:10 or more sm (16+ km)
Ceiling:at least 12,000 feet AGL
Clouds:sky clear below 12,000 feet AGL
QC Flag:automated observation with no human augmentation
Text:K9V9 092135Z AUTO 10005KT 10SM CLR A2997 RMK AO2
Pressure (altimeter):29.97 inches Hg (1015.0 mb)
Winds:from the E (100 degrees) at 6 MPH (5 knots; 2.6 m/s)
Visibility:10 or more sm (16+ km)
Ceiling:at least 12,000 feet AGL
Clouds:sky clear below 12,000 feet AGL
QC Flag:automated observation with no human augmentation
Text:K9V9 092115Z AUTO 00000KT 10SM CLR A2997 RMK AO2
Pressure (altimeter):29.97 inches Hg (1015.0 mb)
Winds:calm
Visibility:10 or more sm (16+ km)
Ceiling:at least 12,000 feet AGL
Clouds:sky clear below 12,000 feet AGL
QC Flag:automated observation with no human augmentation
Text:K9V9 092055Z AUTO 07003KT 10SM CLR A2998 RMK AO2
Pressure (altimeter):29.98 inches Hg (1015.3 mb)
Winds:from the ENE (70 degrees) at 3 MPH (3 knots; 1.5 m/s)
Visibility:10 or more sm (16+ km)
Ceiling:at least 12,000 feet AGL
Clouds:sky clear below 12,000 feet AGL
QC Flag:automated observation with no human augmentation
Text:K9V9 092035Z AUTO 00000KT 10SM CLR 35/17 A2999 RMK AO2 T03530166
Temperature: 35.3°C ( 96°F)
Dewpoint: 16.6°C ( 62°F) [RH = 33%]
Pressure (altimeter):29.99 inches Hg (1015.7 mb)
Winds:calm
Visibility:10 or more sm (16+ km)
Ceiling:at least 12,000 feet AGL
Clouds:sky clear below 12,000 feet AGL
QC Flag:automated observation with no human augmentation
Text:K9V9 092015Z AUTO 12004KT 10SM CLR A2998 RMK AO2
Pressure (altimeter):29.98 inches Hg (1015.3 mb)
Winds:from the ESE (120 degrees) at 5 MPH (4 knots; 2.1 m/s)
Visibility:10 or more sm (16+ km)
Ceiling:at least 12,000 feet AGL
Clouds:sky clear below 12,000 feet AGL
QC Flag:automated observation with no human augmentation
Text:K9V9 091955Z AUTO 26003KT 10SM CLR A2999 RMK AO2
Pressure (altimeter):29.99 inches Hg (1015.7 mb)
Winds:from the W (260 degrees) at 3 MPH (3 knots; 1.5 m/s)
Visibility:10 or more sm (16+ km)
Ceiling:at least 12,000 feet AGL
Clouds:sky clear below 12,000 feet AGL
QC Flag:automated observation with no human augmentation
Text:K9V9 091935Z AUTO 00000KT 10SM CLR A3000 RMK AO2
Pressure (altimeter):30.00 inches Hg (1016.0 mb)
Winds:calm
Visibility:10 or more sm (16+ km)
Ceiling:at least 12,000 feet AGL
Clouds:sky clear below 12,000 feet AGL
QC Flag:automated observation with no human augmentation
Text:K9V9 091915Z AUTO 16004KT 10SM CLR 34/17 A3001 RMK AO2 T03420173
Temperature: 34.2°C ( 94°F)
Dewpoint: 17.3°C ( 63°F) [RH = 37%]
Pressure (altimeter):30.01 inches Hg (1016.3 mb)
Winds:from the SSE (160 degrees) at 5 MPH (4 knots; 2.1 m/s)
Visibility:10 or more sm (16+ km)
Ceiling:at least 12,000 feet AGL
Clouds:sky clear below 12,000 feet AGL
QC Flag:automated observation with no human augmentation
Text:K9V9 091855Z AUTO 22006KT 10SM CLR A3002 RMK AO2
Pressure (altimeter):30.02 inches Hg (1016.7 mb)
Winds:from the SW (220 degrees) at 7 MPH (6 knots; 3.1 m/s)
Visibility:10 or more sm (16+ km)
Ceiling:at least 12,000 feet AGL
Clouds:sky clear below 12,000 feet AGL
QC Flag:automated observation with no human augmentation
Text:K9V9 091835Z AUTO 00000KT 10SM CLR A3002 RMK AO2
Pressure (altimeter):30.02 inches Hg (1016.7 mb)
Winds:calm
Visibility:10 or more sm (16+ km)
Ceiling:at least 12,000 feet AGL
Clouds:sky clear below 12,000 feet AGL
QC Flag:automated observation with no human augmentation
Text:K9V9 091815Z AUTO 21005KT 10SM CLR A3002 RMK AO2
Pressure (altimeter):30.02 inches Hg (1016.7 mb)
Winds:from the SSW (210 degrees) at 6 MPH (5 knots; 2.6 m/s)
Visibility:10 or more sm (16+ km)
Ceiling:at least 12,000 feet AGL
Clouds:sky clear below 12,000 feet AGL
QC Flag:automated observation with no human augmentation
Text:K9V9 091755Z AUTO 27004KT 10SM CLR A3002 RMK AO2
Pressure (altimeter):30.02 inches Hg (1016.7 mb)
Winds:from the W (270 degrees) at 5 MPH (4 knots; 2.1 m/s)
Visibility:10 or more sm (16+ km)
Ceiling:at least 12,000 feet AGL
Clouds:sky clear below 12,000 feet AGL
QC Flag:automated observation with no human augmentation
Text:K9V9 091735Z AUTO 19006KT 10SM CLR A3003 RMK AO2
Pressure (altimeter):30.03 inches Hg (1017.0 mb)
Winds:from the S (190 degrees) at 7 MPH (6 knots; 3.1 m/s)
Visibility:10 or more sm (16+ km)
Ceiling:at least 12,000 feet AGL
Clouds:sky clear below 12,000 feet AGL
QC Flag:automated observation with no human augmentation
Text:K9V9 091715Z AUTO 21009KT 180V240 10SM CLR 31/17 A3003 RMK AO2 T03080165
Temperature: 30.8°C ( 87°F)
Dewpoint: 16.5°C ( 62°F) [RH = 42%]
Pressure (altimeter):30.03 inches Hg (1017.0 mb)
Winds:from the SSW (210 degrees) at 10 MPH (9 knots; 4.6 m/s)
Visibility:10 or more sm (16+ km)
Ceiling:at least 12,000 feet AGL
Clouds:sky clear below 12,000 feet AGL
QC Flag:automated observation with no human augmentation
Text:K9V9 091655Z AUTO 18005KT 10SM CLR 30/16 A3003 RMK AO2 T02970161
Temperature: 29.7°C ( 85°F)
Dewpoint: 16.1°C ( 61°F) [RH = 44%]
Pressure (altimeter):30.03 inches Hg (1017.0 mb)
Winds:from the S (180 degrees) at 6 MPH (5 knots; 2.6 m/s)
Visibility:10 or more sm (16+ km)
Ceiling:at least 12,000 feet AGL
Clouds:sky clear below 12,000 feet AGL
QC Flag:automated observation with no human augmentation
Text:K9V9 091635Z AUTO 23008KT 10SM CLR 29/16 A3004 RMK AO2 T02920162
Temperature: 29.2°C ( 85°F)
Dewpoint: 16.2°C ( 61°F) [RH = 45%]
Pressure (altimeter):30.04 inches Hg (1017.4 mb)
Winds:from the SW (230 degrees) at 9 MPH (8 knots; 4.1 m/s)
Visibility:10 or more sm (16+ km)
Ceiling:at least 12,000 feet AGL
Clouds:sky clear below 12,000 feet AGL
QC Flag:automated observation with no human augmentation
Text:K9V9 091615Z AUTO 21008KT 10SM CLR 29/16 A3004 RMK AO2 T02850161
Temperature: 28.5°C ( 83°F)
Dewpoint: 16.1°C ( 61°F) [RH = 47%]
Pressure (altimeter):30.04 inches Hg (1017.4 mb)
Winds:from the SSW (210 degrees) at 9 MPH (8 knots; 4.1 m/s)
Visibility:10 or more sm (16+ km)
Ceiling:at least 12,000 feet AGL
Clouds:sky clear below 12,000 feet AGL
QC Flag:automated observation with no human augmentation
Text:K9V9 091555Z AUTO 20009KT 10SM CLR 28/16 A3004 RMK AO2 T02800161
Temperature: 28.0°C ( 82°F)
Dewpoint: 16.1°C ( 61°F) [RH = 48%]
Pressure (altimeter):30.04 inches Hg (1017.4 mb)
Winds:from the SSW (200 degrees) at 10 MPH (9 knots; 4.6 m/s)
Visibility:10 or more sm (16+ km)
Ceiling:at least 12,000 feet AGL
Clouds:sky clear below 12,000 feet AGL
QC Flag:automated observation with no human augmentation
Text:K9V9 091535Z AUTO 20009KT 10SM CLR 27/16 A3004 RMK AO2 T02720160
Temperature: 27.2°C ( 81°F)
Dewpoint: 16.0°C ( 61°F) [RH = 50%]
Pressure (altimeter):30.04 inches Hg (1017.4 mb)
Winds:from the SSW (200 degrees) at 10 MPH (9 knots; 4.6 m/s)
Visibility:10 or more sm (16+ km)
Ceiling:at least 12,000 feet AGL
Clouds:sky clear below 12,000 feet AGL
QC Flag:automated observation with no human augmentation
Text:K9V9 091515Z AUTO 18011G14KT 10SM CLR 26/16 A3004 RMK AO2 T02640159
Temperature: 26.4°C ( 80°F)
Dewpoint: 15.9°C ( 61°F) [RH = 52%]
Pressure (altimeter):30.04 inches Hg (1017.4 mb)
Winds:from the S (180 degrees) at 13 MPH (11 knots; 5.7 m/s) gusting to 16 MPH (14 knots; 7.2 m/s)
Visibility:10 or more sm (16+ km)
Ceiling:at least 12,000 feet AGL
Clouds:sky clear below 12,000 feet AGL
QC Flag:automated observation with no human augmentation
Text:K9V9 091455Z AUTO 19012KT 10SM SCT110 25/16 A3004 RMK AO2 T02520159
Temperature: 25.2°C ( 77°F)
Dewpoint: 15.9°C ( 61°F) [RH = 56%]
Pressure (altimeter):30.04 inches Hg (1017.4 mb)
Winds:from the S (190 degrees) at 14 MPH (12 knots; 6.2 m/s)
Visibility:10 or more sm (16+ km)
Ceiling:at least 12,000 feet AGL
Clouds: scattered clouds at 11000 feet AGL
QC Flag:automated observation with no human augmentation
Text:K9V9 091435Z AUTO 17008KT 10SM SCT110 24/16 A3005 RMK AO2 T02440159
Temperature: 24.4°C ( 76°F)
Dewpoint: 15.9°C ( 61°F) [RH = 59%]
Pressure (altimeter):30.05 inches Hg (1017.7 mb)
Winds:from the S (170 degrees) at 9 MPH (8 knots; 4.1 m/s)
Visibility:10 or more sm (16+ km)
Ceiling:at least 12,000 feet AGL
Clouds: scattered clouds at 11000 feet AGL
QC Flag:automated observation with no human augmentation
Text:K9V9 091415Z AUTO 18012KT 10SM SCT110 24/16 A3005 RMK AO2 T02380160
Temperature: 23.8°C ( 75°F)
Dewpoint: 16.0°C ( 61°F) [RH = 62%]
Pressure (altimeter):30.05 inches Hg (1017.7 mb)
Winds:from the S (180 degrees) at 14 MPH (12 knots; 6.2 m/s)
Visibility:10 or more sm (16+ km)
Ceiling:at least 12,000 feet AGL
Clouds: scattered clouds at 11000 feet AGL
QC Flag:automated observation with no human augmentation
Text:K9V9 091355Z AUTO 18008KT 10SM SCT110 22/16 A3005 RMK AO2 T02240164
Temperature: 22.4°C ( 72°F)
Dewpoint: 16.4°C ( 62°F) [RH = 69%]
Pressure (altimeter):30.05 inches Hg (1017.7 mb)
Winds:from the S (180 degrees) at 9 MPH (8 knots; 4.1 m/s)
Visibility:10 or more sm (16+ km)
Ceiling:at least 12,000 feet AGL
Clouds: scattered clouds at 11000 feet AGL
QC Flag:automated observation with no human augmentation
Text:K9V9 091335Z AUTO 16006KT 10SM SCT100 21/18 A3005 RMK AO2 T02110181
Temperature: 21.1°C ( 70°F)
Dewpoint: 18.1°C ( 65°F) [RH = 83%]
Pressure (altimeter):30.05 inches Hg (1017.7 mb)
Winds:from the SSE (160 degrees) at 7 MPH (6 knots; 3.1 m/s)
Visibility:10 or more sm (16+ km)
Ceiling:at least 12,000 feet AGL
Clouds: scattered clouds at 10000 feet AGL
QC Flag:automated observation with no human augmentation
Text:K9V9 091315Z AUTO 13006KT 10SM CLR 19/19 A3005 RMK AO2 T01940185
Temperature: 19.4°C ( 67°F)
Dewpoint: 18.5°C ( 65°F) [RH = 95%]
Pressure (altimeter):30.05 inches Hg (1017.7 mb)
Winds:from the SE (130 degrees) at 7 MPH (6 knots; 3.1 m/s)
Visibility:10 or more sm (16+ km)
Ceiling:at least 12,000 feet AGL
Clouds:sky clear below 12,000 feet AGL
QC Flag:automated observation with no human augmentation
Text:K9V9 091255Z AUTO 12004KT 10SM CLR 19/18 A3004 RMK AO2 T01850184
Temperature: 18.5°C ( 65°F)
Dewpoint: 18.4°C ( 65°F) [RH = 99%]
Pressure (altimeter):30.04 inches Hg (1017.4 mb)
Winds:from the ESE (120 degrees) at 5 MPH (4 knots; 2.1 m/s)
Visibility:10 or more sm (16+ km)
Ceiling:at least 12,000 feet AGL
Clouds:sky clear below 12,000 feet AGL
QC Flag:automated observation with no human augmentation
Text:K9V9 091235Z AUTO 14004KT 10SM CLR 17/17 A3004 RMK AO2 T01710171
Temperature: 17.1°C ( 63°F)
Dewpoint: 17.1°C ( 63°F) [RH = 100%]
Pressure (altimeter):30.04 inches Hg (1017.4 mb)
Winds:from the SE (140 degrees) at 5 MPH (4 knots; 2.1 m/s)
Visibility:10 or more sm (16+ km)
Ceiling:at least 12,000 feet AGL
Clouds:sky clear below 12,000 feet AGL
QC Flag:automated observation with no human augmentation
Text:K9V9 091215Z AUTO 13005KT 10SM CLR 16/16 A3004 RMK AO2 T01640164
Temperature: 16.4°C ( 62°F)
Dewpoint: 16.4°C ( 62°F) [RH = 100%]
Pressure (altimeter):30.04 inches Hg (1017.4 mb)
Winds:from the SE (130 degrees) at 6 MPH (5 knots; 2.6 m/s)
Visibility:10 or more sm (16+ km)
Ceiling:at least 12,000 feet AGL
Clouds:sky clear below 12,000 feet AGL
QC Flag:automated observation with no human augmentation
Text:K9V9 091155Z AUTO 14006KT 10SM CLR 16/16 A3004 RMK AO2 T01610161 10175 20157
Temperature: 16.1°C ( 61°F)
Dewpoint: 16.1°C ( 61°F) [RH = 100%]
Pressure (altimeter):30.04 inches Hg (1017.4 mb)
Winds:from the SE (140 degrees) at 7 MPH (6 knots; 3.1 m/s)
Visibility:10 or more sm (16+ km)
Ceiling:at least 12,000 feet AGL
Clouds:sky clear below 12,000 feet AGL
QC Flag:automated observation with no human augmentation
Text:K9V9 091135Z AUTO 15005KT 10SM CLR 16/16 A3003 RMK AO2 T01580158
Temperature: 15.8°C ( 60°F)
Dewpoint: 15.8°C ( 60°F) [RH = 100%]
Pressure (altimeter):30.03 inches Hg (1017.0 mb)
Winds:from the SSE (150 degrees) at 6 MPH (5 knots; 2.6 m/s)
Visibility:10 or more sm (16+ km)
Ceiling:at least 12,000 feet AGL
Clouds:sky clear below 12,000 feet AGL
QC Flag:automated observation with no human augmentation
Text:K9V9 091115Z AUTO 15005KT 10SM CLR 16/16 A3003 RMK AO2 T01580158
Temperature: 15.8°C ( 60°F)
Dewpoint: 15.8°C ( 60°F) [RH = 100%]
Pressure (altimeter):30.03 inches Hg (1017.0 mb)
Winds:from the SSE (150 degrees) at 6 MPH (5 knots; 2.6 m/s)
Visibility:10 or more sm (16+ km)
Ceiling:at least 12,000 feet AGL
Clouds:sky clear below 12,000 feet AGL
QC Flag:automated observation with no human augmentation
Text:K9V9 091055Z AUTO 14006KT 10SM CLR 16/16 A3004 RMK AO2 T01580158
Temperature: 15.8°C ( 60°F)
Dewpoint: 15.8°C ( 60°F) [RH = 100%]
Pressure (altimeter):30.04 inches Hg (1017.4 mb)
Winds:from the SE (140 degrees) at 7 MPH (6 knots; 3.1 m/s)
Visibility:10 or more sm (16+ km)
Ceiling:at least 12,000 feet AGL
Clouds:sky clear below 12,000 feet AGL
QC Flag:automated observation with no human augmentation
Text:K9V9 091035Z AUTO 14007KT 10SM CLR 16/16 A3004 RMK AO2 T01610161
Temperature: 16.1°C ( 61°F)
Dewpoint: 16.1°C ( 61°F) [RH = 100%]
Pressure (altimeter):30.04 inches Hg (1017.4 mb)
Winds:from the SE (140 degrees) at 8 MPH (7 knots; 3.6 m/s)
Visibility:10 or more sm (16+ km)
Ceiling:at least 12,000 feet AGL
Clouds:sky clear below 12,000 feet AGL
QC Flag:automated observation with no human augmentation
Text:K9V9 091015Z AUTO 14007KT 10SM CLR 16/16 A3004 RMK AO2 T01600160
Temperature: 16.0°C ( 61°F)
Dewpoint: 16.0°C ( 61°F) [RH = 100%]
Pressure (altimeter):30.04 inches Hg (1017.4 mb)
Winds:from the SE (140 degrees) at 8 MPH (7 knots; 3.6 m/s)
Visibility:10 or more sm (16+ km)
Ceiling:at least 12,000 feet AGL
Clouds:sky clear below 12,000 feet AGL
QC Flag:automated observation with no human augmentation
Text:K9V9 090955Z AUTO 13006KT 10SM CLR 16/16 A3004 RMK AO2 T01570157
Temperature: 15.7°C ( 60°F)
Dewpoint: 15.7°C ( 60°F) [RH = 100%]
Pressure (altimeter):30.04 inches Hg (1017.4 mb)
Winds:from the SE (130 degrees) at 7 MPH (6 knots; 3.1 m/s)
Visibility:10 or more sm (16+ km)
Ceiling:at least 12,000 feet AGL
Clouds:sky clear below 12,000 feet AGL
QC Flag:automated observation with no human augmentation
Text:K9V9 090935Z AUTO 11006KT 10SM CLR 16/16 A3004 RMK AO2 T01630163
Temperature: 16.3°C ( 61°F)
Dewpoint: 16.3°C ( 61°F) [RH = 100%]
Pressure (altimeter):30.04 inches Hg (1017.4 mb)
Winds:from the ESE (110 degrees) at 7 MPH (6 knots; 3.1 m/s)
Visibility:10 or more sm (16+ km)
Ceiling:at least 12,000 feet AGL
Clouds:sky clear below 12,000 feet AGL
QC Flag:automated observation with no human augmentation
Text:K9V9 090915Z AUTO 12007KT 10SM CLR 16/16 A3005 RMK AO2 T01610161
Temperature: 16.1°C ( 61°F)
Dewpoint: 16.1°C ( 61°F) [RH = 100%]
Pressure (altimeter):30.05 inches Hg (1017.7 mb)
Winds:from the ESE (120 degrees) at 8 MPH (7 knots; 3.6 m/s)
Visibility:10 or more sm (16+ km)
Ceiling:at least 12,000 feet AGL
Clouds:sky clear below 12,000 feet AGL
QC Flag:automated observation with no human augmentation
Text:K9V9 090855Z AUTO 11007KT 10SM CLR 17/17 A3005 RMK AO2 T01650165
Temperature: 16.5°C ( 62°F)
Dewpoint: 16.5°C ( 62°F) [RH = 100%]
Pressure (altimeter):30.05 inches Hg (1017.7 mb)
Winds:from the ESE (110 degrees) at 8 MPH (7 knots; 3.6 m/s)
Visibility:10 or more sm (16+ km)
Ceiling:at least 12,000 feet AGL
Clouds:sky clear below 12,000 feet AGL
QC Flag:automated observation with no human augmentation
Text:K9V9 090835Z AUTO 10005KT 10SM CLR 17/17 A3005 RMK AO2 T01680168
Temperature: 16.8°C ( 62°F)
Dewpoint: 16.8°C ( 62°F) [RH = 100%]
Pressure (altimeter):30.05 inches Hg (1017.7 mb)
Winds:from the E (100 degrees) at 6 MPH (5 knots; 2.6 m/s)
Visibility:10 or more sm (16+ km)
Ceiling:at least 12,000 feet AGL
Clouds:sky clear below 12,000 feet AGL
QC Flag:automated observation with no human augmentation
Text:K9V9 090815Z AUTO 09003KT 10SM CLR 17/16 A3005 RMK AO2 T01720157
Temperature: 17.2°C ( 63°F)
Dewpoint: 15.7°C ( 60°F) [RH = 91%]
Pressure (altimeter):30.05 inches Hg (1017.7 mb)
Winds:from the E (90 degrees) at 3 MPH (3 knots; 1.5 m/s)
Visibility:10 or more sm (16+ km)
Ceiling:at least 12,000 feet AGL
Clouds:sky clear below 12,000 feet AGL
QC Flag:automated observation with no human augmentation
Text:K9V9 090755Z AUTO 12005KT 10SM CLR 17/16 A3005 RMK AO2 T01720157
Temperature: 17.2°C ( 63°F)
Dewpoint: 15.7°C ( 60°F) [RH = 91%]
Pressure (altimeter):30.05 inches Hg (1017.7 mb)
Winds:from the ESE (120 degrees) at 6 MPH (5 knots; 2.6 m/s)
Visibility:10 or more sm (16+ km)
Ceiling:at least 12,000 feet AGL
Clouds:sky clear below 12,000 feet AGL
QC Flag:automated observation with no human augmentation
Text:K9V9 090735Z AUTO 13006KT 10SM CLR 17/16 A3005 RMK AO2 T01720155
Temperature: 17.2°C ( 63°F)
Dewpoint: 15.5°C ( 60°F) [RH = 90%]
Pressure (altimeter):30.05 inches Hg (1017.7 mb)
Winds:from the SE (130 degrees) at 7 MPH (6 knots; 3.1 m/s)
Visibility:10 or more sm (16+ km)
Ceiling:at least 12,000 feet AGL
Clouds:sky clear below 12,000 feet AGL
QC Flag:automated observation with no human augmentation
Text:K9V9 090715Z AUTO 14007KT 10SM CLR 17/15 A3005 RMK AO2 T01710153
Temperature: 17.1°C ( 63°F)
Dewpoint: 15.3°C ( 60°F) [RH = 89%]
Pressure (altimeter):30.05 inches Hg (1017.7 mb)
Winds:from the SE (140 degrees) at 8 MPH (7 knots; 3.6 m/s)
Visibility:10 or more sm (16+ km)
Ceiling:at least 12,000 feet AGL
Clouds:sky clear below 12,000 feet AGL
QC Flag:automated observation with no human augmentation
Text:K9V9 090655Z AUTO 14008KT 10SM CLR 17/15 A3006 RMK AO2 T01680151
Temperature: 16.8°C ( 62°F)
Dewpoint: 15.1°C ( 59°F) [RH = 90%]
Pressure (altimeter):30.06 inches Hg (1018.0 mb)
Winds:from the SE (140 degrees) at 9 MPH (8 knots; 4.1 m/s)
Visibility:10 or more sm (16+ km)
Ceiling:at least 12,000 feet AGL
Clouds:sky clear below 12,000 feet AGL
QC Flag:automated observation with no human augmentation
Text:K9V9 090635Z AUTO 14007KT 10SM CLR 17/15 A3006 RMK AO2 T01720146
Temperature: 17.2°C ( 63°F)
Dewpoint: 14.6°C ( 58°F) [RH = 85%]
Pressure (altimeter):30.06 inches Hg (1018.0 mb)
Winds:from the SE (140 degrees) at 8 MPH (7 knots; 3.6 m/s)
Visibility:10 or more sm (16+ km)
Ceiling:at least 12,000 feet AGL
Clouds:sky clear below 12,000 feet AGL
QC Flag:automated observation with no human augmentation
Text:K9V9 090615Z AUTO 15008KT 10SM CLR 17/14 A3007 RMK AO2 T01700144
Temperature: 17.0°C ( 63°F)
Dewpoint: 14.4°C ( 58°F) [RH = 85%]
Pressure (altimeter):30.07 inches Hg (1018.4 mb)
Winds:from the SSE (150 degrees) at 9 MPH (8 knots; 4.1 m/s)
Visibility:10 or more sm (16+ km)
Ceiling:at least 12,000 feet AGL
Clouds:sky clear below 12,000 feet AGL
QC Flag:automated observation with no human augmentation
Text:K9V9 090555Z AUTO 14006KT 10SM CLR 17/14 A3007 RMK AO2 T01660142 10276 20166 402960078
Temperature: 16.6°C ( 62°F)
Dewpoint: 14.2°C ( 58°F) [RH = 86%]
Pressure (altimeter):30.07 inches Hg (1018.4 mb)
Winds:from the SE (140 degrees) at 7 MPH (6 knots; 3.1 m/s)
Visibility:10 or more sm (16+ km)
Ceiling:at least 12,000 feet AGL
Clouds:sky clear below 12,000 feet AGL
QC Flag:automated observation with no human augmentation
Text:K9V9 090535Z AUTO 15007KT 10SM CLR 18/14 A3007 RMK AO2 T01750141
Temperature: 17.5°C ( 64°F)
Dewpoint: 14.1°C ( 57°F) [RH = 80%]
Pressure (altimeter):30.07 inches Hg (1018.4 mb)
Winds:from the SSE (150 degrees) at 8 MPH (7 knots; 3.6 m/s)
Visibility:10 or more sm (16+ km)
Ceiling:at least 12,000 feet AGL
Clouds:sky clear below 12,000 feet AGL
QC Flag:automated observation with no human augmentation
Text:K9V9 090515Z AUTO 13008KT 10SM CLR 18/14 A3007 RMK AO2 T01820142
Temperature: 18.2°C ( 65°F)
Dewpoint: 14.2°C ( 58°F) [RH = 77%]
Pressure (altimeter):30.07 inches Hg (1018.4 mb)
Winds:from the SE (130 degrees) at 9 MPH (8 knots; 4.1 m/s)
Visibility:10 or more sm (16+ km)
Ceiling:at least 12,000 feet AGL
Clouds:sky clear below 12,000 feet AGL
QC Flag:automated observation with no human augmentation
Text:K9V9 090455Z AUTO 14009KT 10SM CLR 19/15 A3006 RMK AO2 T01850145
Temperature: 18.5°C ( 65°F)
Dewpoint: 14.5°C ( 58°F) [RH = 78%]
Pressure (altimeter):30.06 inches Hg (1018.0 mb)
Winds:from the SE (140 degrees) at 10 MPH (9 knots; 4.6 m/s)
Visibility:10 or more sm (16+ km)
Ceiling:at least 12,000 feet AGL
Clouds:sky clear below 12,000 feet AGL
QC Flag:automated observation with no human augmentation
Text:K9V9 090435Z AUTO 13008KT 10SM CLR 18/15 A3007 RMK AO2 T01820145
Temperature: 18.2°C ( 65°F)
Dewpoint: 14.5°C ( 58°F) [RH = 79%]
Pressure (altimeter):30.07 inches Hg (1018.4 mb)
Winds:from the SE (130 degrees) at 9 MPH (8 knots; 4.1 m/s)
Visibility:10 or more sm (16+ km)
Ceiling:at least 12,000 feet AGL
Clouds:sky clear below 12,000 feet AGL
QC Flag:automated observation with no human augmentation
Text:K9V9 090415Z AUTO 14007KT 10SM CLR 19/15 A3007 RMK AO2 T01850145
Temperature: 18.5°C ( 65°F)
Dewpoint: 14.5°C ( 58°F) [RH = 78%]
Pressure (altimeter):30.07 inches Hg (1018.4 mb)
Winds:from the SE (140 degrees) at 8 MPH (7 knots; 3.6 m/s)
Visibility:10 or more sm (16+ km)
Ceiling:at least 12,000 feet AGL
Clouds:sky clear below 12,000 feet AGL
QC Flag:automated observation with no human augmentation
Text:K9V9 090355Z AUTO 13008KT 10SM CLR 19/14 A3007 RMK AO2 T01890143
Temperature: 18.9°C ( 66°F)
Dewpoint: 14.3°C ( 58°F) [RH = 75%]
Pressure (altimeter):30.07 inches Hg (1018.4 mb)
Winds:from the SE (130 degrees) at 9 MPH (8 knots; 4.1 m/s)
Visibility:10 or more sm (16+ km)
Ceiling:at least 12,000 feet AGL
Clouds:sky clear below 12,000 feet AGL
QC Flag:automated observation with no human augmentation
Text:K9V9 090335Z AUTO 13008KT 10SM CLR 19/15 A3006 RMK AO2 T01920145
Temperature: 19.2°C ( 67°F)
Dewpoint: 14.5°C ( 58°F) [RH = 74%]
Pressure (altimeter):30.06 inches Hg (1018.0 mb)
Winds:from the SE (130 degrees) at 9 MPH (8 knots; 4.1 m/s)
Visibility:10 or more sm (16+ km)
Ceiling:at least 12,000 feet AGL
Clouds:sky clear below 12,000 feet AGL
QC Flag:automated observation with no human augmentation
Text:K9V9 090315Z AUTO 13007KT 10SM CLR 20/14 A3006 RMK AO2 T01950144
Temperature: 19.5°C ( 67°F)
Dewpoint: 14.4°C ( 58°F) [RH = 72%]
Pressure (altimeter):30.06 inches Hg (1018.0 mb)
Winds:from the SE (130 degrees) at 8 MPH (7 knots; 3.6 m/s)
Visibility:10 or more sm (16+ km)
Ceiling:at least 12,000 feet AGL
Clouds:sky clear below 12,000 feet AGL
QC Flag:automated observation with no human augmentation
Text:K9V9 090255Z AUTO 12008KT 10SM CLR 21/14 A3005 RMK AO2 T02050143
Temperature: 20.5°C ( 69°F)
Dewpoint: 14.3°C ( 58°F) [RH = 68%]
Pressure (altimeter):30.05 inches Hg (1017.7 mb)
Winds:from the ESE (120 degrees) at 9 MPH (8 knots; 4.1 m/s)
Visibility:10 or more sm (16+ km)
Ceiling:at least 12,000 feet AGL
Clouds:sky clear below 12,000 feet AGL
QC Flag:automated observation with no human augmentation
Text:K9V9 090235Z AUTO 12008KT 10SM CLR 21/15 A3005 RMK AO2 T02070145
Temperature: 20.7°C ( 69°F)
Dewpoint: 14.5°C ( 58°F) [RH = 68%]
Pressure (altimeter):30.05 inches Hg (1017.7 mb)
Winds:from the ESE (120 degrees) at 9 MPH (8 knots; 4.1 m/s)
Visibility:10 or more sm (16+ km)
Ceiling:at least 12,000 feet AGL
Clouds:sky clear below 12,000 feet AGL
QC Flag:automated observation with no human augmentation
Text:K9V9 090215Z AUTO 12007KT 10SM CLR 21/15 A3004 RMK AO2 T02120147
Temperature: 21.2°C ( 70°F)
Dewpoint: 14.7°C ( 58°F) [RH = 66%]
Pressure (altimeter):30.04 inches Hg (1017.4 mb)
Winds:from the ESE (120 degrees) at 8 MPH (7 knots; 3.6 m/s)
Visibility:10 or more sm (16+ km)
Ceiling:at least 12,000 feet AGL
Clouds:sky clear below 12,000 feet AGL
QC Flag:automated observation with no human augmentation
Text:K9V9 090155Z AUTO 12007KT 10SM CLR 22/15 A3003 RMK AO2 T02240148
Temperature: 22.4°C ( 72°F)
Dewpoint: 14.8°C ( 59°F) [RH = 62%]
Pressure (altimeter):30.03 inches Hg (1017.0 mb)
Winds:from the ESE (120 degrees) at 8 MPH (7 knots; 3.6 m/s)
Visibility:10 or more sm (16+ km)
Ceiling:at least 12,000 feet AGL
Clouds:sky clear below 12,000 feet AGL
QC Flag:automated observation with no human augmentation